Time;durP1;ratioP1;P1;durP2;ratioP2;P2;SDS_P1;SDS_P2;PMS_P1;PMS_P2;Temp;Humidity;BMP_temperature;BMP_pressure;BME280_temperature;BME280_humidity;BME280_pressure;Samples;Min_cycle;Max_cycle;Signal;HPM_P1;HPM_P2
2021/08/03 00:01:48;;;;;;;0.40;0.30;;;13.70;99.90;;;;;;5093041;28;20382;-83
2021/08/03 00:04:17;;;;;;;0.40;0.30;;;13.60;99.90;;;;;;5074670;28;20374;-82
2021/08/03 00:06:55;;;;;;;0.40;0.30;;;13.60;99.90;;;;;;5108816;28;20393;-80
2021/08/03 00:09:23;;;;;;;0.40;0.20;;;13.70;99.90;;;;;;5108316;28;20468;-79
2021/08/03 00:11:49;;;;;;;0.40;0.30;;;13.80;99.90;;;;;;5093025;28;20413;-80
2021/08/03 00:14:15;;;;;;;0.40;0.25;;;13.90;99.90;;;;;;5092581;28;20378;-79
2021/08/03 00:16:43;;;;;;;0.40;0.30;;;13.60;99.90;;;;;;5095140;28;20459;-80
2021/08/03 00:19:10;;;;;;;0.40;0.20;;;13.70;99.90;;;;;;5072440;28;20395;-80
2021/08/03 00:21:36;;;;;;;0.40;0.30;;;13.60;99.90;;;;;;5054630;28;20465;-82
2021/08/03 00:24:03;;;;;;;0.40;0.20;;;13.60;99.90;;;;;;5072999;28;20844;-82
2021/08/03 00:26:29;;;;;;;0.40;0.30;;;13.70;99.90;;;;;;5072294;28;20398;-82
2021/08/03 00:28:55;;;;;;;0.40;0.20;;;13.50;99.90;;;;;;5054190;28;20499;-82
2021/08/03 00:31:25;;;;;;;0.40;0.20;;;13.30;99.90;;;;;;5071987;28;20380;-82
2021/08/03 00:33:54;;;;;;;0.40;0.20;;;13.40;99.90;;;;;;5072532;28;20383;-79
2021/08/03 00:36:23;;;;;;;0.40;0.20;;;13.40;99.90;;;;;;5053813;28;20838;-82
2021/08/03 00:38:48;;;;;;;0.40;0.20;;;13.30;99.90;;;;;;5072372;28;20379;-79
2021/08/03 00:41:22;;;;;;;0.40;0.20;;;13.50;99.90;;;;;;5071640;28;20712;-79
2021/08/03 00:43:47;;;;;;;0.40;0.30;;;13.30;99.90;;;;;;5071924;28;20368;-79
2021/08/03 00:46:13;;;;;;;0.40;0.30;;;13.20;99.90;;;;;;5071932;28;20384;-81
2021/08/03 00:48:39;;;;;;;0.40;0.20;;;13.70;99.90;;;;;;5072334;28;20422;-81
2021/08/03 00:51:05;;;;;;;0.40;0.20;;;13.10;99.90;;;;;;5072196;28;20457;-79
2021/08/03 00:53:30;;;;;;;0.40;0.20;;;13.00;99.90;;;;;;5071148;28;20387;-78
2021/08/03 00:55:59;;;;;;;0.40;0.30;;;13.10;99.90;;;;;;5071931;28;20420;-79
2021/08/03 00:58:24;;;;;;;0.40;0.30;;;13.20;99.90;;;;;;5053464;28;20384;-78
2021/08/03 01:00:53;;;;;;;0.40;0.30;;;13.20;99.90;;;;;;5072187;28;20390;-78
2021/08/03 01:03:19;;;;;;;0.40;0.30;;;13.50;99.90;;;;;;5071266;28;20375;-78
2021/08/03 01:06:01;;;;;;;0.40;0.20;;;13.00;99.90;;;;;;5071951;28;20417;-81
2021/08/03 01:08:54;;;;;;;0.40;0.30;;;13.10;99.90;;;;;;5070885;28;20880;-78
2021/08/03 01:11:52;;;;;;;0.40;0.20;;;13.00;99.90;;;;;;5071200;28;20410;-78
2021/08/03 01:14:33;;;;;;;0.40;0.30;;;13.10;99.90;;;;;;5070941;28;20786;-78
2021/08/03 01:17:23;;;;;;;0.40;0.20;;;13.10;99.90;;;;;;5087347;28;20410;-79
2021/08/03 01:19:59;;;;;;;0.40;0.30;;;12.90;99.90;;;;;;5092093;28;20807;-79
2021/08/03 01:23:13;;;;;;;0.40;0.30;;;13.20;99.90;;;;;;5091288;28;20398;-79
2021/08/03 01:25:53;;;;;;;0.40;0.28;;;12.90;99.90;;;;;;5046505;28;20409;-78
2021/08/03 01:28:22;;;;;;;0.40;0.20;;;12.90;99.90;;;;;;5091011;28;20433;-78
2021/08/03 01:31:01;;;;;;;0.40;0.20;;;13.00;99.90;;;;;;5091737;28;20386;-79
2021/08/03 01:33:30;;;;;;;0.40;0.20;;;13.10;99.90;;;;;;5090929;28;20385;-79
2021/08/03 01:35:58;;;;;;;0.40;0.30;;;13.10;99.90;;;;;;5091652;28;20406;-78
2021/08/03 01:38:27;;;;;;;0.40;0.30;;;13.30;99.90;;;;;;5090945;28;20386;-78
2021/08/03 01:41:02;;;;;;;0.40;0.30;;;12.90;99.90;;;;;;5091818;28;20432;-78
2021/08/03 01:43:29;;;;;;;0.40;0.30;;;12.70;99.90;;;;;;5090876;28;20373;-78
2021/08/03 01:45:56;;;;;;;0.40;0.20;;;13.20;99.90;;;;;;5091591;28;20420;-80
2021/08/03 01:48:24;;;;;;;0.40;0.20;;;12.90;99.90;;;;;;5090974;28;20390;-80
2021/08/03 01:50:53;;;;;;;0.40;0.30;;;13.10;99.90;;;;;;5091506;28;20382;-78
2021/08/03 01:53:20;;;;;;;0.40;0.30;;;12.80;99.90;;;;;;5090673;28;20382;-80
2021/08/03 01:55:46;;;;;;;0.40;0.20;;;12.60;99.90;;;;;;5090439;28;20467;-80
2021/08/03 01:58:16;;;;;;;0.40;0.20;;;12.80;99.90;;;;;;5090446;28;20378;-80
2021/08/03 02:00:43;;;;;;;0.40;0.30;;;12.70;99.90;;;;;;5091564;28;20459;-78
2021/08/03 02:03:10;;;;;;;0.40;0.20;;;13.10;99.90;;;;;;5091157;28;20374;-78
2021/08/03 02:05:41;;;;;;;0.40;0.30;;;11.60;99.90;;;;;;5090975;28;20386;-78
2021/08/03 02:08:09;;;;;;;0.40;0.30;;;12.70;99.90;;;;;;5091411;28;20785;-79
2021/08/03 02:10:36;;;;;;;0.40;0.30;;;12.50;99.90;;;;;;5090613;28;20374;-78
2021/08/03 02:13:03;;;;;;;0.40;0.30;;;12.60;99.90;;;;;;5091149;28;20377;-79
2021/08/03 02:15:30;;;;;;;0.40;0.20;;;13.00;99.90;;;;;;5090451;28;20445;-78
2021/08/03 02:17:55;;;;;;;0.40;0.30;;;12.60;99.90;;;;;;5091043;28;20386;-78
2021/08/03 02:20:22;;;;;;;0.40;0.30;;;12.50;99.90;;;;;;5090590;28;20374;-78
2021/08/03 02:22:48;;;;;;;0.40;0.20;;;12.50;99.90;;;;;;5091234;28;20381;-78
2021/08/03 02:25:14;;;;;;;0.40;0.20;;;12.50;99.90;;;;;;5090540;28;20382;-78
2021/08/03 02:27:40;;;;;;;0.40;0.20;;;12.70;99.90;;;;;;5090826;28;20400;-79
2021/08/03 02:30:07;;;;;;;0.40;0.20;;;12.80;99.90;;;;;;5091174;28;20545;-78
2021/08/03 02:32:42;;;;;;;0.40;0.30;;;12.50;99.90;;;;;;5072238;28;20523;-80
2021/08/03 02:35:23;;;;;;;0.40;0.20;;;12.40;99.90;;;;;;5090926;28;20882;-78
2021/08/03 02:37:58;;;;;;;0.40;0.30;;;12.70;99.90;;;;;;5090922;28;20749;-80
2021/08/03 02:40:24;;;;;;;0.40;0.20;;;12.50;99.90;;;;;;5090127;28;20373;-80
2021/08/03 02:42:52;;;;;;;0.40;0.30;;;12.80;99.90;;;;;;5090881;28;20381;-80
2021/08/03 02:45:19;;;;;;;0.40;0.30;;;12.80;99.90;;;;;;5090278;28;20465;-80
2021/08/03 02:47:51;;;;;;;0.40;0.20;;;13.00;99.90;;;;;;5090532;28;20839;-80
2021/08/03 02:50:18;;;;;;;0.40;0.20;;;12.60;99.90;;;;;;5090002;28;20885;-80
2021/08/03 02:52:46;;;;;;;0.40;0.30;;;12.50;99.90;;;;;;5090749;28;20378;-80
2021/08/03 02:55:23;;;;;;;0.40;0.30;;;12.50;99.90;;;;;;5090591;28;20410;-80
2021/08/03 02:58:18;;;;;;;0.40;0.30;;;12.50;99.90;;;;;;5072644;28;20776;-80
2021/08/03 03:00:44;;;;;;;0.40;0.30;;;12.80;99.90;;;;;;5087773;28;20482;-81
2021/08/03 03:03:20;;;;;;;0.40;0.20;;;12.70;99.90;;;;;;5090760;28;20474;-80
2021/08/03 03:05:50;;;;;;;0.40;0.20;;;12.50;99.90;;;;;;5090703;28;20476;-81
2021/08/03 03:08:18;;;;;;;0.40;0.20;;;12.40;99.90;;;;;;5092983;28;20485;-81
2021/08/03 03:10:53;;;;;;;0.40;0.20;;;13.00;99.90;;;;;;5094425;28;20447;-81
2021/08/03 03:13:30;;;;;;;0.40;0.30;;;12.50;99.90;;;;;;5093631;28;20880;-80
2021/08/03 03:15:57;;;;;;;0.40;0.20;;;12.60;99.90;;;;;;5094366;28;20438;-81
2021/08/03 03:18:24;;;;;;;0.40;0.30;;;12.80;99.90;;;;;;5093650;28;20726;-81
2021/08/03 03:20:50;;;;;;;0.40;0.20;;;12.60;99.90;;;;;;5094184;28;20378;-81
2021/08/03 03:23:20;;;;;;;0.40;0.20;;;12.90;99.90;;;;;;5075546;28;20413;-80
2021/08/03 03:25:48;;;;;;;0.40;0.30;;;12.70;99.90;;;;;;5094206;28;20394;-81
2021/08/03 03:28:17;;;;;;;0.40;0.20;;;12.70;99.90;;;;;;5093486;28;20500;-81
2021/08/03 03:30:44;;;;;;;0.40;0.30;;;13.00;99.90;;;;;;5094080;28;20385;-81
2021/08/03 03:33:11;;;;;;;0.40;0.20;;;12.90;99.90;;;;;;5093593;28;20385;-80
2021/08/03 03:35:37;;;;;;;0.40;0.30;;;12.70;99.90;;;;;;5093010;28;20456;-81
2021/08/03 03:38:04;;;;;;;0.40;0.30;;;12.80;99.90;;;;;;5093766;28;20418;-80
2021/08/03 03:40:30;;;;;;;0.40;0.30;;;12.90;99.90;;;;;;5092996;28;20737;-80
2021/08/03 03:42:57;;;;;;;0.40;0.28;;;12.50;99.90;;;;;;5093591;28;20390;-80
2021/08/03 03:45:24;;;;;;;0.40;0.30;;;13.00;99.90;;;;;;5093087;28;20416;-80
2021/08/03 03:47:57;;;;;;;0.40;0.20;;;13.10;99.90;;;;;;5093599;28;20382;-80
2021/08/03 03:50:30;;;;;;;0.40;0.20;;;12.70;99.90;;;;;;5093119;28;20496;-80
2021/08/03 03:53:12;;;;;;;0.40;0.20;;;12.70;99.90;;;;;;5109554;28;20750;-80
2021/08/03 03:55:40;;;;;;;0.40;0.20;;;12.60;99.90;;;;;;5092818;28;20493;-80
2021/08/03 03:58:07;;;;;;;0.40;0.20;;;13.00;99.90;;;;;;5093548;28;20478;-80
2021/08/03 04:00:35;;;;;;;0.40;0.20;;;12.70;99.90;;;;;;5092755;28;20410;-80
2021/08/03 04:03:04;;;;;;;0.40;0.20;;;13.20;99.90;;;;;;5093425;28;20431;-81
2021/08/03 04:05:30;;;;;;;0.40;0.25;;;13.00;99.90;;;;;;5092701;28;20485;-80
2021/08/03 04:07:55;;;;;;;0.40;0.30;;;12.80;99.90;;;;;;5093398;28;20414;-80
2021/08/03 04:10:42;;;;;;;0.40;0.30;;;13.20;99.90;;;;;;5092639;28;20807;-80
2021/08/03 04:13:09;;;;;;;0.40;0.30;;;12.70;99.90;;;;;;5074681;28;20735;-80
2021/08/03 04:15:35;;;;;;;0.40;0.30;;;12.70;99.90;;;;;;5103769;28;20799;-80
2021/08/03 04:18:02;;;;;;;0.40;0.30;;;12.90;99.90;;;;;;5072551;28;20377;-80
2021/08/03 04:20:27;;;;;;;0.40;0.20;;;12.50;99.90;;;;;;5072130;28;20419;-80
2021/08/03 04:22:53;;;;;;;0.40;0.30;;;12.80;99.90;;;;;;5072980;28;20431;-80
2021/08/03 04:25:19;;;;;;;0.40;0.20;;;12.70;99.90;;;;;;5072094;28;20744;-79
2021/08/03 04:27:45;;;;;;;0.40;0.20;;;12.70;99.90;;;;;;5072464;28;20745;-80
2021/08/03 04:30:13;;;;;;;0.40;0.30;;;12.80;99.90;;;;;;5072745;28;20875;-81
2021/08/03 04:32:39;;;;;;;0.40;0.20;;;12.80;99.90;;;;;;5071971;28;20477;-80
2021/08/03 04:35:07;;;;;;;0.40;0.20;;;12.90;99.90;;;;;;5054512;28;20560;-80
2021/08/03 04:37:44;;;;;;;0.40;0.20;;;12.80;99.90;;;;;;5071968;28;20387;-81
2021/08/03 04:40:12;;;;;;;0.40;0.30;;;13.00;99.90;;;;;;5072765;28;20833;-80
2021/08/03 04:42:38;;;;;;;0.40;0.20;;;13.00;99.90;;;;;;5053939;28;20387;-80
2021/08/03 04:45:05;;;;;;;0.40;0.30;;;12.80;99.90;;;;;;5072097;28;20376;-80
2021/08/03 04:47:31;;;;;;;0.40;0.30;;;12.80;99.90;;;;;;5071512;28;20390;-80
2021/08/03 04:49:56;;;;;;;0.40;0.30;;;12.90;99.90;;;;;;5072132;28;20475;-80
2021/08/03 04:52:22;;;;;;;0.40;0.30;;;12.90;99.90;;;;;;5071631;28;20426;-80
2021/08/03 04:54:48;;;;;;;0.40;0.20;;;12.90;99.90;;;;;;5072026;28;20403;-80
2021/08/03 04:57:13;;;;;;;0.40;0.20;;;13.00;99.90;;;;;;5071968;28;20383;-80
2021/08/03 04:59:39;;;;;;;0.40;0.30;;;13.20;99.90;;;;;;5071384;28;20372;-81
2021/08/03 05:02:05;;;;;;;0.40;0.20;;;13.30;99.90;;;;;;5054210;28;20390;-80
2021/08/03 05:04:34;;;;;;;0.40;0.20;;;13.10;99.90;;;;;;5071079;28;20430;-80
2021/08/03 05:07:04;;;;;;;0.40;0.25;;;13.20;99.90;;;;;;5054016;28;20388;-80
2021/08/03 05:09:30;;;;;;;0.40;0.20;;;13.10;99.90;;;;;;5071418;28;20375;-79
2021/08/03 05:11:55;;;;;;;0.40;0.20;;;13.10;99.90;;;;;;5071899;28;20473;-80
2021/08/03 05:14:21;;;;;;;0.40;0.20;;;13.20;99.90;;;;;;5071719;28;20465;-78
2021/08/03 05:16:47;;;;;;;0.40;0.20;;;13.40;99.90;;;;;;5086153;28;20417;-79
2021/08/03 05:19:12;;;;;;;0.40;0.20;;;13.60;99.90;;;;;;5107681;28;20484;-79
2021/08/03 05:21:38;;;;;;;0.40;0.20;;;13.20;99.90;;;;;;5091396;28;20863;-79
2021/08/03 05:24:04;;;;;;;0.40;0.20;;;13.30;99.90;;;;;;5091946;28;20378;-79
2021/08/03 05:26:30;;;;;;;0.40;0.30;;;13.10;99.90;;;;;;5073093;28;20390;-79
2021/08/03 05:28:56;;;;;;;0.40;0.20;;;13.40;99.90;;;;;;5091413;28;20393;-79
2021/08/03 05:31:21;;;;;;;0.40;0.20;;;13.50;99.90;;;;;;5091886;28;20712;-80
2021/08/03 05:33:47;;;;;;;0.40;0.20;;;13.40;99.90;;;;;;5091432;28;20833;-80
2021/08/03 05:36:13;;;;;;;0.40;0.20;;;13.50;99.90;;;;;;5091575;28;20416;-79
2021/08/03 05:38:39;;;;;;;0.40;0.30;;;13.50;99.90;;;;;;5091079;28;20377;-79
2021/08/03 05:41:04;;;;;;;0.40;0.20;;;13.60;99.90;;;;;;5091293;28;20374;-79
2021/08/03 05:43:30;;;;;;;0.40;0.20;;;13.90;99.90;;;;;;5091095;28;20442;-79
2021/08/03 05:45:56;;;;;;;0.40;0.20;;;14.00;99.90;;;;;;5091250;28;20386;-80
2021/08/03 05:48:21;;;;;;;0.40;0.20;;;13.80;99.90;;;;;;5091677;28;20492;-80
2021/08/03 05:50:47;;;;;;;0.40;0.20;;;13.70;99.90;;;;;;5090528;28;20385;-80
2021/08/03 05:53:13;;;;;;;0.40;0.20;;;14.10;99.90;;;;;;5091611;28;20378;-80
2021/08/03 05:55:40;;;;;;;0.40;0.20;;;13.70;99.90;;;;;;5090430;28;20466;-80
2021/08/03 05:58:05;;;;;;;0.40;0.30;;;13.80;99.90;;;;;;5091498;28;20381;-80
2021/08/03 06:00:31;;;;;;;0.40;0.20;;;14.00;99.90;;;;;;5072851;28;20870;-80
2021/08/03 06:02:57;;;;;;;0.40;0.20;;;13.80;99.90;;;;;;5091389;28;20410;-79
2021/08/03 06:05:23;;;;;;;0.40;0.30;;;14.10;99.90;;;;;;5091320;28;20895;-80
2021/08/03 06:07:51;;;;;;;0.40;0.20;;;14.20;99.90;;;;;;5090730;28;20911;-79
2021/08/03 06:10:17;;;;;;;0.40;0.20;;;14.30;99.90;;;;;;5091254;28;20386;-79
2021/08/03 06:12:49;;;;;;;0.40;0.20;;;14.30;99.90;;;;;;5072812;28;20423;-79
2021/08/03 06:15:16;;;;;;;0.40;0.20;;;14.40;99.90;;;;;;5091144;28;20508;-81
2021/08/03 06:17:47;;;;;;;0.40;0.20;;;14.30;99.90;;;;;;5072257;28;20394;-80
2021/08/03 06:20:14;;;;;;;0.40;0.20;;;14.50;99.90;;;;;;5091197;28;20390;-80
2021/08/03 06:22:40;;;;;;;0.40;0.20;;;14.30;99.90;;;;;;5090539;28;20386;-81
2021/08/03 06:25:08;;;;;;;0.40;0.20;;;14.80;99.90;;;;;;5091092;28;20385;-80
2021/08/03 06:27:34;;;;;;;0.40;0.20;;;14.60;99.90;;;;;;5090516;28;20374;-81
2021/08/03 06:30:02;;;;;;;0.40;0.30;;;14.70;99.90;;;;;;5090973;28;20862;-80
2021/08/03 06:32:28;;;;;;;0.40;0.30;;;14.80;99.90;;;;;;5090482;28;20374;-80
2021/08/03 06:34:53;;;;;;;0.40;0.30;;;14.80;99.90;;;;;;5091009;28;20843;-81
2021/08/03 06:37:19;;;;;;;0.40;0.20;;;15.00;99.90;;;;;;5090950;28;20410;-80
2021/08/03 06:39:45;;;;;;;0.40;0.20;;;14.80;99.90;;;;;;5090463;28;20385;-81
2021/08/03 06:42:22;;;;;;;0.40;0.20;;;14.90;99.90;;;;;;5074165;28;20394;-81
2021/08/03 06:45:03;;;;;;;0.40;0.30;;;15.00;99.90;;;;;;5094118;28;20382;-81
2021/08/03 06:47:45;;;;;;;0.40;0.20;;;15.00;99.90;;;;;;5093998;28;20486;-82
2021/08/03 06:50:13;;;;;;;0.40;0.20;;;15.10;99.90;;;;;;5076833;28;20422;-81
2021/08/03 06:52:38;;;;;;;0.40;0.20;;;15.00;99.90;;;;;;5094248;28;20704;-82
2021/08/03 06:55:07;;;;;;;0.40;0.20;;;15.20;99.90;;;;;;5094723;28;20405;-82
2021/08/03 06:57:34;;;;;;;0.40;0.30;;;15.30;99.90;;;;;;5075618;28;20398;-81
2021/08/03 07:00:09;;;;;;;0.40;0.20;;;15.20;99.90;;;;;;5094541;28;20878;-82
2021/08/03 07:02:44;;;;;;;0.40;0.30;;;15.70;99.90;;;;;;5094092;28;20386;-82
2021/08/03 07:05:18;;;;;;;0.40;0.20;;;15.50;99.90;;;;;;5094656;28;20393;-82
2021/08/03 07:07:44;;;;;;;0.40;0.30;;;15.60;99.90;;;;;;5093984;28;20390;-82
2021/08/03 07:10:13;;;;;;;0.40;0.30;;;15.70;99.90;;;;;;5076330;28;20427;-82
2021/08/03 07:12:44;;;;;;;0.40;0.20;;;15.80;99.90;;;;;;5093464;28;20457;-82
2021/08/03 07:15:11;;;;;;;0.40;0.20;;;16.20;99.90;;;;;;5093936;28;20866;-82
2021/08/03 07:17:39;;;;;;;0.40;0.30;;;15.90;99.90;;;;;;5109136;28;20394;-82
2021/08/03 07:20:06;;;;;;;0.40;0.30;;;15.70;99.90;;;;;;5076194;28;20440;-82
2021/08/03 07:22:34;;;;;;;0.40;0.20;;;15.70;99.90;;;;;;5075335;28;20465;-81
2021/08/03 07:25:02;;;;;;;0.40;0.20;;;15.70;99.90;;;;;;5094521;28;20393;-81
2021/08/03 07:27:28;;;;;;;0.40;0.28;;;15.90;99.90;;;;;;5093934;28;20392;-81
2021/08/03 07:29:53;;;;;;;0.40;0.28;;;16.10;99.90;;;;;;5109163;28;20794;-82
2021/08/03 07:32:19;;;;;;;0.40;0.20;;;15.80;99.90;;;;;;5094027;28;20378;-81
2021/08/03 07:34:45;;;;;;;0.40;0.20;;;15.60;99.90;;;;;;5109027;28;20788;-82
2021/08/03 07:37:11;;;;;;;0.40;0.23;;;15.70;99.90;;;;;;5075970;28;20866;-82
2021/08/03 07:39:38;;;;;;;0.40;0.30;;;15.70;99.90;;;;;;5108729;28;20829;-82
2021/08/03 07:42:04;;;;;;;0.40;0.20;;;15.40;99.90;;;;;;5094507;28;20384;-81
2021/08/03 07:44:30;;;;;;;0.40;0.20;;;15.40;99.90;;;;;;5075397;28;20803;-81
2021/08/03 07:46:56;;;;;;;0.40;0.20;;;15.60;99.90;;;;;;5094133;28;21093;-81
2021/08/03 07:49:22;;;;;;;0.40;0.20;;;15.60;99.90;;;;;;5093918;28;20391;-81
2021/08/03 07:51:50;;;;;;;0.40;0.30;;;15.30;99.90;;;;;;5093061;28;20384;-81
2021/08/03 07:54:16;;;;;;;0.40;0.20;;;15.40;99.90;;;;;;5092310;28;20425;-81
2021/08/03 07:56:42;;;;;;;0.40;0.30;;;15.50;99.90;;;;;;5092816;28;20600;-80
2021/08/03 07:59:07;;;;;;;0.40;0.20;;;15.40;99.90;;;;;;5093527;28;20378;-80
2021/08/03 08:01:33;;;;;;;0.40;0.30;;;15.50;99.90;;;;;;5092778;28;20370;-79
2021/08/03 08:03:59;;;;;;;0.40;0.20;;;15.60;99.90;;;;;;5093472;28;20386;-80
2021/08/03 08:06:25;;;;;;;0.40;0.30;;;15.40;99.90;;;;;;5075109;28;20423;-80
2021/08/03 08:08:50;;;;;;;0.40;0.30;;;15.30;99.90;;;;;;5092921;28;20366;-81
2021/08/03 08:11:16;;;;;;;0.40;0.30;;;14.50;99.90;;;;;;5092946;28;20439;-80
2021/08/03 08:13:42;;;;;;;0.40;0.20;;;15.80;99.90;;;;;;5108498;28;20404;-80
2021/08/03 08:16:08;;;;;;;0.40;0.20;;;15.90;99.90;;;;;;5093182;28;20416;-80
2021/08/03 08:18:33;;;;;;;0.40;0.25;;;15.90;99.90;;;;;;5092494;28;20382;-79
2021/08/03 08:20:59;;;;;;;0.40;0.20;;;15.80;99.90;;;;;;5074917;28;20455;-80
2021/08/03 08:23:25;;;;;;;0.40;0.20;;;15.90;99.90;;;;;;5074895;28;20393;-81
2021/08/03 08:25:53;;;;;;;0.40;0.20;;;16.10;99.90;;;;;;5074288;28;20386;-80
2021/08/03 08:28:21;;;;;;;0.40;0.20;;;15.80;99.90;;;;;;5092692;28;20410;-80
2021/08/03 08:30:47;;;;;;;0.40;0.30;;;16.00;99.90;;;;;;5092010;28;20394;-80
2021/08/03 08:33:13;;;;;;;0.40;0.20;;;16.20;99.90;;;;;;5092811;28;20374;-79
2021/08/03 08:35:39;;;;;;;0.40;0.30;;;16.10;99.90;;;;;;5074112;28;20409;-79
2021/08/03 08:38:05;;;;;;;0.40;0.20;;;16.10;99.90;;;;;;5092689;28;20366;-79
2021/08/03 08:40:31;;;;;;;0.40;0.30;;;15.90;99.90;;;;;;5092909;28;20743;-79
2021/08/03 08:42:56;;;;;;;0.40;0.20;;;16.00;99.90;;;;;;5092236;28;20375;-79
2021/08/03 08:45:22;;;;;;;0.40;0.30;;;15.70;99.90;;;;;;5074405;28;20390;-80
2021/08/03 08:47:50;;;;;;;0.40;0.20;;;15.80;99.90;;;;;;5092195;28;20454;-81
2021/08/03 08:50:21;;;;;;;0.40;0.20;;;16.20;99.90;;;;;;5074332;28;20873;-81
2021/08/03 08:52:53;;;;;;;0.40;0.20;;;15.80;99.90;;;;;;5091786;28;20383;-81
2021/08/03 08:55:20;;;;;;;0.40;0.30;;;15.90;99.90;;;;;;5092444;28;20406;-82
2021/08/03 08:57:50;;;;;;;0.40;0.30;;;16.00;99.90;;;;;;5073512;28;20515;-81
2021/08/03 09:00:16;;;;;;;0.40;0.30;;;16.20;99.90;;;;;;5074270;28;20799;-82
2021/08/03 09:02:43;;;;;;;0.40;0.20;;;16.50;99.90;;;;;;5091588;28;20382;-81
2021/08/03 09:05:11;;;;;;;0.40;0.30;;;16.40;99.90;;;;;;5091925;28;20568;-82
2021/08/03 09:07:53;;;;;;;0.40;0.30;;;16.50;99.90;;;;;;5091190;28;20378;-81
2021/08/03 09:10:38;;;;;;;0.40;0.30;;;16.40;99.90;;;;;;5092240;28;20428;-82
2021/08/03 09:13:07;;;;;;;0.40;0.20;;;16.30;99.90;;;;;;5074146;28;20401;-83
2021/08/03 09:15:37;;;;;;;0.40;0.20;;;16.40;99.90;;;;;;5073766;28;20994;-82
2021/08/03 09:18:29;;;;;;;0.40;0.30;;;16.10;99.90;;;;;;5091889;28;20443;-83
2021/08/03 09:20:55;;;;;;;0.40;0.30;;;16.50;99.90;;;;;;5091390;28;20465;-81
2021/08/03 09:23:38;;;;;;;0.40;0.20;;;16.10;99.90;;;;;;5091789;28;20374;-82
2021/08/03 09:26:03;;;;;;;0.40;0.20;;;16.10;99.90;;;;;;5091798;28;20378;-82
2021/08/03 09:28:30;;;;;;;0.40;0.20;;;16.50;99.90;;;;;;5107123;28;20452;-82
2021/08/03 09:30:55;;;;;;;0.40;0.30;;;16.30;99.90;;;;;;5090746;28;20458;-82
2021/08/03 09:33:24;;;;;;;0.40;0.30;;;16.40;99.90;;;;;;5091585;28;20374;-82
2021/08/03 09:35:50;;;;;;;0.40;0.30;;;16.40;99.90;;;;;;5091038;28;20402;-82
2021/08/03 09:38:20;;;;;;;0.40;0.30;;;16.40;99.90;;;;;;5091610;28;20539;-82
2021/08/03 09:40:47;;;;;;;0.40;0.30;;;16.20;99.90;;;;;;5072933;28;20393;-82
2021/08/03 09:43:15;;;;;;;0.40;0.20;;;16.30;99.90;;;;;;5107779;28;20397;-82
2021/08/03 09:45:44;;;;;;;0.40;0.20;;;16.30;99.90;;;;;;5091069;28;20394;-81
2021/08/03 09:48:13;;;;;;;0.40;0.30;;;16.10;99.90;;;;;;5091225;28;20402;-83
2021/08/03 09:50:54;;;;;;;0.40;0.20;;;16.00;99.90;;;;;;5090673;28;20432;-81
2021/08/03 09:53:41;;;;;;;0.40;0.30;;;16.00;99.90;;;;;;5091384;28;20405;-82
2021/08/03 09:56:10;;;;;;;0.40;0.20;;;15.90;99.90;;;;;;5091364;28;20758;-83
2021/08/03 09:58:48;;;;;;;0.40;0.30;;;15.90;99.90;;;;;;5091304;28;20468;-83
2021/08/03 10:01:41;;;;;;;0.40;0.30;;;15.70;99.90;;;;;;5107178;28;20880;-83
2021/08/03 10:04:09;;;;;;;0.40;0.20;;;15.70;99.90;;;;;;5090529;28;20444;-82
2021/08/03 10:06:36;;;;;;;0.40;0.20;;;15.70;99.90;;;;;;5073119;28;20393;-84
2021/08/03 10:09:04;;;;;;;0.40;0.20;;;15.50;99.90;;;;;;5079293;28;20386;-89
2021/08/03 10:11:30;;;;;;;0.40;0.30;;;15.50;99.90;;;;;;5098921;28;20366;-90
2021/08/03 10:13:58;;;;;;;0.40;0.30;;;15.40;99.90;;;;;;5086957;28;20420;-92
2021/08/03 10:16:25;;;;;;;0.40;0.30;;;15.20;99.90;;;;;;5084374;28;20439;-86
2021/08/03 10:18:54;;;;;;;0.40;0.20;;;15.30;99.90;;;;;;5098655;28;20382;-82
2021/08/03 10:21:29;;;;;;;0.40;0.20;;;15.20;99.90;;;;;;5076906;28;20400;-79
2021/08/03 10:23:59;;;;;;;0.40;0.30;;;15.10;99.90;;;;;;5110356;28;20949;-79
2021/08/03 10:26:25;;;;;;;0.40;0.20;;;15.10;99.90;;;;;;5095363;28;20382;-79
2021/08/03 10:29:24;;;;;;;0.40;0.20;;;15.00;99.90;;;;;;5094167;28;20532;-79
2021/08/03 10:31:50;;;;;;;0.40;0.30;;;14.90;99.90;;;;;;5094525;28;20389;-80
2021/08/03 10:34:44;;;;;;;0.40;0.20;;;15.00;99.90;;;;;;5095115;28;20378;-80
2021/08/03 10:37:11;;;;;;;0.40;0.20;;;15.30;99.90;;;;;;5087304;28;20867;-79
2021/08/03 10:39:54;;;;;;;0.40;0.30;;;15.30;99.90;;;;;;5110642;28;20398;-77
2021/08/03 10:42:22;;;;;;;0.40;0.30;;;15.50;99.90;;;;;;5095033;28;20727;-78
2021/08/03 10:44:50;;;;;;;0.40;0.20;;;15.40;99.90;;;;;;5094219;28;20747;-78
2021/08/03 10:47:34;;;;;;;0.40;0.30;;;15.70;99.90;;;;;;5094907;28;20748;-77
2021/08/03 10:50:06;;;;;;;0.40;0.20;;;15.70;99.90;;;;;;5109945;28;20433;-78
2021/08/03 10:52:52;;;;;;;0.40;0.20;;;15.80;99.90;;;;;;5094959;28;20382;-78
2021/08/03 10:55:34;;;;;;;0.40;0.20;;;15.50;99.90;;;;;;5094603;28;20483;-78
2021/08/03 10:58:13;;;;;;;0.40;0.22;;;16.00;99.90;;;;;;5109853;28;20402;-78
2021/08/03 11:00:42;;;;;;;0.40;0.20;;;15.80;99.90;;;;;;5094622;28;20766;-80
2021/08/03 11:03:35;;;;;;;0.40;0.20;;;16.70;99.90;;;;;;5094328;28;20380;-81
2021/08/03 11:06:06;;;;;;;0.40;0.20;;;16.60;99.90;;;;;;5093943;28;20382;-80
2021/08/03 11:09:02;;;;;;;0.40;0.30;;;16.30;99.90;;;;;;5094099;28;20873;-81
2021/08/03 11:11:30;;;;;;;0.40;0.20;;;16.50;99.90;;;;;;5076928;28;20402;-80
2021/08/03 11:14:08;;;;;;;0.40;0.30;;;16.30;99.90;;;;;;5093775;28;20385;-81
2021/08/03 11:16:35;;;;;;;0.40;0.30;;;16.60;99.90;;;;;;5094508;28;20406;-82
2021/08/03 11:19:03;;;;;;;0.40;0.30;;;16.40;99.90;;;;;;5093808;28;20398;-82
2021/08/03 11:21:31;;;;;;;0.40;0.20;;;16.80;99.90;;;;;;5094304;28;20421;-82
2021/08/03 11:24:04;;;;;;;0.40;0.20;;;16.60;99.90;;;;;;5093523;28;20473;-81
2021/08/03 11:26:35;;;;;;;0.40;0.20;;;16.90;99.90;;;;;;5094267;28;20394;-80
2021/08/03 11:29:08;;;;;;;0.40;0.20;;;16.70;99.90;;;;;;5092819;28;20402;-80
2021/08/03 11:31:49;;;;;;;0.40;0.20;;;16.80;99.90;;;;;;5094144;28;20382;-80
2021/08/03 11:34:18;;;;;;;0.40;0.30;;;16.70;99.90;;;;;;5093962;28;20378;-80
2021/08/03 11:37:02;;;;;;;0.40;0.30;;;16.80;99.90;;;;;;5093955;28;20410;-80
2021/08/03 11:39:33;;;;;;;0.40;0.30;;;16.90;99.90;;;;;;5093924;28;20439;-80
2021/08/03 11:42:00;;;;;;;0.40;0.30;;;16.80;99.90;;;;;;5092933;28;20392;-81
2021/08/03 11:44:25;;;;;;;0.40;0.30;;;16.70;99.90;;;;;;5093409;28;20374;-81
2021/08/03 11:47:02;;;;;;;0.40;0.30;;;16.80;99.90;;;;;;5093240;28;20835;-81
2021/08/03 11:49:47;;;;;;;0.40;0.30;;;16.60;99.90;;;;;;5109354;28;20452;-81
2021/08/03 11:52:19;;;;;;;0.40;0.30;;;16.40;99.90;;;;;;5075688;28;20927;-81
2021/08/03 11:54:56;;;;;;;0.40;0.30;;;16.60;99.90;;;;;;5093517;28;20386;-82
2021/08/03 11:57:27;;;;;;;0.40;0.20;;;16.40;99.90;;;;;;5093709;28;20386;-82
2021/08/03 12:00:01;;;;;;;0.40;0.20;;;16.60;99.90;;;;;;5092959;28;20374;-83
2021/08/03 12:02:27;;;;;;;0.40;0.28;;;16.50;99.90;;;;;;5093549;28;20366;-85
2021/08/03 12:05:09;;;;;;;0.40;0.20;;;16.40;99.90;;;;;;5092857;28;20423;-87
2021/08/03 12:07:37;;;;;;;0.40;0.20;;;16.30;99.90;;;;;;5075641;28;20397;-91
2021/08/03 12:10:04;;;;;;;0.40;0.20;;;16.20;99.90;;;;;;5092831;28;20370;-87
2021/08/03 12:12:33;;;;;;;0.40;0.30;;;16.10;99.90;;;;;;5094745;28;20370;-85
2021/08/03 12:15:19;;;;;;;0.40;0.20;;;16.30;99.90;;;;;;5075238;28;20432;-83
2021/08/03 12:17:46;;;;;;;0.40;0.30;;;16.40;99.90;;;;;;5077422;28;20901;-80
2021/08/03 12:20:23;;;;;;;0.40;0.20;;;16.50;99.90;;;;;;5092777;28;20381;-79
2021/08/03 12:22:49;;;;;;;0.40;0.20;;;16.70;99.90;;;;;;5092489;28;20392;-79
2021/08/03 12:25:15;;;;;;;0.40;0.20;;;17.00;99.90;;;;;;5092834;28;20382;-77
2021/08/03 12:27:42;;;;;;;0.40;0.20;;;17.20;99.90;;;;;;5092802;28;20401;-81
2021/08/03 12:30:36;;;;;;;0.40;0.30;;;17.20;99.90;;;;;;5092409;28;20381;-83
2021/08/03 12:33:02;;;;;;;0.40;0.30;;;17.20;99.90;;;;;;5074471;28;20394;-86
2021/08/03 12:35:28;;;;;;;0.40;0.30;;;17.30;99.90;;;;;;5078246;28;20414;-86
2021/08/03 12:38:13;;;;;;;0.40;0.20;;;17.20;99.90;;;;;;5094567;28;20444;-87
2021/08/03 12:40:39;;;;;;;0.40;0.20;;;18.60;99.90;;;;;;5093722;28;20374;-87
2021/08/03 12:43:05;;;;;;;0.40;0.30;;;17.10;99.90;;;;;;5093917;28;20781;-88
2021/08/03 12:45:31;;;;;;;0.40;0.20;;;17.30;99.90;;;;;;5094333;28;20379;-83
2021/08/03 12:48:02;;;;;;;0.40;0.30;;;17.10;99.90;;;;;;5092260;28;20861;-84
2021/08/03 12:50:29;;;;;;;0.40;0.20;;;17.00;99.90;;;;;;5075212;28;20451;-82
2021/08/03 12:52:59;;;;;;;0.40;0.30;;;17.10;99.90;;;;;;5092850;28;20406;-84
2021/08/03 12:55:41;;;;;;;0.40;0.30;;;17.00;99.90;;;;;;5109403;28;20496;-82
2021/08/03 12:58:06;;;;;;;0.40;0.30;;;16.90;99.90;;;;;;5093026;28;20393;-82
2021/08/03 13:00:34;;;;;;;0.40;0.20;;;17.00;99.90;;;;;;5092888;28;20952;-83
2021/08/03 13:03:02;;;;;;;0.40;0.30;;;17.40;99.90;;;;;;5092315;28;20888;-82